sensor_id;sensor_type;location;lat;lon;timestamp;P1;durP1;ratioP1;P2;durP2;ratioP2
42132;SDS011;70517;48.192;16.278;2024-01-27T00:02:43;0.20;;;0.20;;
42132;SDS011;70517;48.192;16.278;2024-01-27T00:05:43;0.40;;;0.20;;
42132;SDS011;70517;48.192;16.278;2024-01-27T00:08:43;0.80;;;0.20;;
42132;SDS011;70517;48.192;16.278;2024-01-27T00:11:44;0.30;;;0.20;;
42132;SDS011;70517;48.192;16.278;2024-01-27T00:14:44;0.17;;;0.13;;
42132;SDS011;70517;48.192;16.278;2024-01-27T00:17:44;0.30;;;0.10;;
42132;SDS011;70517;48.192;16.278;2024-01-27T00:20:44;0.20;;;0.20;;
42132;SDS011;70517;48.192;16.278;2024-01-27T00:23:45;0.20;;;0.20;;
42132;SDS011;70517;48.192;16.278;2024-01-27T00:26:45;0.20;;;0.17;;
42132;SDS011;70517;48.192;16.278;2024-01-27T00:29:45;0.20;;;0.20;;
42132;SDS011;70517;48.192;16.278;2024-01-27T00:32:45;0.10;;;0.10;;
42132;SDS011;70517;48.192;16.278;2024-01-27T00:35:46;0.30;;;0.10;;
42132;SDS011;70517;48.192;16.278;2024-01-27T00:38:46;0.50;;;0.13;;
42132;SDS011;70517;48.192;16.278;2024-01-27T00:41:46;0.17;;;0.10;;
42132;SDS011;70517;48.192;16.278;2024-01-27T00:44:46;0.20;;;0.20;;
42132;SDS011;70517;48.192;16.278;2024-01-27T00:47:47;0.53;;;0.10;;
42132;SDS011;70517;48.192;16.278;2024-01-27T00:50:47;0.20;;;0.10;;
42132;SDS011;70517;48.192;16.278;2024-01-27T00:53:47;0.20;;;0.20;;
42132;SDS011;70517;48.192;16.278;2024-01-27T00:56:47;0.43;;;0.27;;
42132;SDS011;70517;48.192;16.278;2024-01-27T00:59:48;0.30;;;0.20;;
42132;SDS011;70517;48.192;16.278;2024-01-27T01:02:48;0.70;;;0.40;;
42132;SDS011;70517;48.192;16.278;2024-01-27T01:05:49;0.40;;;0.30;;
42132;SDS011;70517;48.192;16.278;2024-01-27T01:08:49;0.30;;;0.20;;
42132;SDS011;70517;48.192;16.278;2024-01-27T01:11:49;0.50;;;0.40;;
42132;SDS011;70517;48.192;16.278;2024-01-27T01:14:50;0.20;;;0.20;;
42132;SDS011;70517;48.192;16.278;2024-01-27T01:17:50;0.43;;;0.30;;
42132;SDS011;70517;48.192;16.278;2024-01-27T01:20:50;0.77;;;0.37;;
42132;SDS011;70517;48.192;16.278;2024-01-27T01:23:50;0.40;;;0.30;;
42132;SDS011;70517;48.192;16.278;2024-01-27T01:26:50;1.60;;;0.30;;
42132;SDS011;70517;48.192;16.278;2024-01-27T01:29:51;0.47;;;0.30;;
42132;SDS011;70517;48.192;16.278;2024-01-27T01:32:51;0.55;;;0.20;;
42132;SDS011;70517;48.192;16.278;2024-01-27T01:35:52;0.20;;;0.20;;
42132;SDS011;70517;48.192;16.278;2024-01-27T01:38:53;0.32;;;0.30;;
42132;SDS011;70517;48.192;16.278;2024-01-27T01:41:53;0.30;;;0.20;;
42132;SDS011;70517;48.192;16.278;2024-01-27T01:44:53;0.20;;;0.20;;
42132;SDS011;70517;48.192;16.278;2024-01-27T01:47:54;0.37;;;0.23;;
42132;SDS011;70517;48.192;16.278;2024-01-27T01:50:54;0.67;;;0.40;;
42132;SDS011;70517;48.192;16.278;2024-01-27T01:53:57;0.53;;;0.30;;
42132;SDS011;70517;48.192;16.278;2024-01-27T01:57:00;0.55;;;0.30;;
42132;SDS011;70517;48.192;16.278;2024-01-27T02:00:00;0.82;;;0.40;;
42132;SDS011;70517;48.192;16.278;2024-01-27T02:03:01;1.33;;;0.30;;
42132;SDS011;70517;48.192;16.278;2024-01-27T02:06:01;1.23;;;0.40;;
42132;SDS011;70517;48.192;16.278;2024-01-27T02:09:01;1.13;;;0.47;;
42132;SDS011;70517;48.192;16.278;2024-01-27T02:12:02;0.83;;;0.30;;
42132;SDS011;70517;48.192;16.278;2024-01-27T02:15:02;0.33;;;0.30;;
42132;SDS011;70517;48.192;16.278;2024-01-27T02:18:02;0.70;;;0.40;;
42132;SDS011;70517;48.192;16.278;2024-01-27T02:21:03;0.30;;;0.30;;
42132;SDS011;70517;48.192;16.278;2024-01-27T02:24:06;0.87;;;0.50;;
42132;SDS011;70517;48.192;16.278;2024-01-27T02:27:07;0.65;;;0.35;;
42132;SDS011;70517;48.192;16.278;2024-01-27T02:30:07;0.30;;;0.30;;
42132;SDS011;70517;48.192;16.278;2024-01-27T02:33:07;0.37;;;0.30;;
42132;SDS011;70517;48.192;16.278;2024-01-27T02:36:08;0.40;;;0.20;;
42132;SDS011;70517;48.192;16.278;2024-01-27T02:39:08;0.77;;;0.20;;
42132;SDS011;70517;48.192;16.278;2024-01-27T02:42:08;0.83;;;0.20;;
42132;SDS011;70517;48.192;16.278;2024-01-27T02:45:09;0.47;;;0.20;;
42132;SDS011;70517;48.192;16.278;2024-01-27T02:48:10;0.20;;;0.20;;
42132;SDS011;70517;48.192;16.278;2024-01-27T02:51:10;0.30;;;0.20;;
42132;SDS011;70517;48.192;16.278;2024-01-27T02:54:10;1.10;;;0.30;;
42132;SDS011;70517;48.192;16.278;2024-01-27T02:57:11;0.70;;;0.20;;
42132;SDS011;70517;48.192;16.278;2024-01-27T03:00:11;0.47;;;0.30;;
42132;SDS011;70517;48.192;16.278;2024-01-27T03:03:11;0.40;;;0.40;;
42132;SDS011;70517;48.192;16.278;2024-01-27T03:06:12;1.27;;;0.33;;
42132;SDS011;70517;48.192;16.278;2024-01-27T03:09:12;0.57;;;0.20;;
42132;SDS011;70517;48.192;16.278;2024-01-27T03:12:12;0.40;;;0.20;;
42132;SDS011;70517;48.192;16.278;2024-01-27T03:15:13;0.30;;;0.20;;
42132;SDS011;70517;48.192;16.278;2024-01-27T03:18:13;0.70;;;0.20;;
42132;SDS011;70517;48.192;16.278;2024-01-27T03:21:13;0.77;;;0.33;;
42132;SDS011;70517;48.192;16.278;2024-01-27T03:24:13;0.33;;;0.20;;
42132;SDS011;70517;48.192;16.278;2024-01-27T03:27:14;0.40;;;0.30;;
42132;SDS011;70517;48.192;16.278;2024-01-27T03:30:14;0.53;;;0.20;;
42132;SDS011;70517;48.192;16.278;2024-01-27T03:33:14;0.47;;;0.13;;
42132;SDS011;70517;48.192;16.278;2024-01-27T03:36:14;1.37;;;0.40;;
42132;SDS011;70517;48.192;16.278;2024-01-27T03:39:15;0.93;;;0.20;;
42132;SDS011;70517;48.192;16.278;2024-01-27T03:42:15;1.03;;;0.40;;
42132;SDS011;70517;48.192;16.278;2024-01-27T03:45:15;0.40;;;0.30;;
42132;SDS011;70517;48.192;16.278;2024-01-27T03:48:15;0.60;;;0.40;;
42132;SDS011;70517;48.192;16.278;2024-01-27T03:51:16;1.60;;;0.50;;
42132;SDS011;70517;48.192;16.278;2024-01-27T03:54:16;0.57;;;0.30;;
42132;SDS011;70517;48.192;16.278;2024-01-27T03:57:16;0.30;;;0.30;;
42132;SDS011;70517;48.192;16.278;2024-01-27T04:00:17;0.63;;;0.40;;
42132;SDS011;70517;48.192;16.278;2024-01-27T04:03:17;1.20;;;0.40;;
42132;SDS011;70517;48.192;16.278;2024-01-27T04:06:17;0.70;;;0.40;;
42132;SDS011;70517;48.192;16.278;2024-01-27T04:09:18;0.43;;;0.30;;
42132;SDS011;70517;48.192;16.278;2024-01-27T04:12:18;0.30;;;0.30;;
42132;SDS011;70517;48.192;16.278;2024-01-27T04:15:18;0.97;;;0.60;;
42132;SDS011;70517;48.192;16.278;2024-01-27T04:18:18;0.30;;;0.30;;
42132;SDS011;70517;48.192;16.278;2024-01-27T04:21:19;0.60;;;0.30;;
42132;SDS011;70517;48.192;16.278;2024-01-27T04:24:19;0.60;;;0.33;;
42132;SDS011;70517;48.192;16.278;2024-01-27T04:27:19;0.77;;;0.37;;
42132;SDS011;70517;48.192;16.278;2024-01-27T04:30:20;1.30;;;0.33;;
42132;SDS011;70517;48.192;16.278;2024-01-27T04:33:20;0.67;;;0.30;;
42132;SDS011;70517;48.192;16.278;2024-01-27T04:36:29;0.70;;;0.37;;
42132;SDS011;70517;48.192;16.278;2024-01-27T04:39:30;0.30;;;0.30;;
42132;SDS011;70517;48.192;16.278;2024-01-27T04:42:30;0.57;;;0.30;;
42132;SDS011;70517;48.192;16.278;2024-01-27T04:45:30;0.40;;;0.37;;
42132;SDS011;70517;48.192;16.278;2024-01-27T04:48:31;0.97;;;0.50;;
42132;SDS011;70517;48.192;16.278;2024-01-27T04:51:31;0.57;;;0.40;;
42132;SDS011;70517;48.192;16.278;2024-01-27T04:54:31;0.50;;;0.40;;
42132;SDS011;70517;48.192;16.278;2024-01-27T04:57:31;0.47;;;0.30;;
42132;SDS011;70517;48.192;16.278;2024-01-27T05:00:32;0.50;;;0.40;;
42132;SDS011;70517;48.192;16.278;2024-01-27T05:03:32;0.83;;;0.40;;
42132;SDS011;70517;48.192;16.278;2024-01-27T05:06:32;1.37;;;0.40;;
42132;SDS011;70517;48.192;16.278;2024-01-27T05:09:33;0.23;;;0.20;;
42132;SDS011;70517;48.192;16.278;2024-01-27T05:12:34;0.82;;;0.40;;
42132;SDS011;70517;48.192;16.278;2024-01-27T05:15:34;0.33;;;0.23;;
42132;SDS011;70517;48.192;16.278;2024-01-27T05:18:35;0.40;;;0.30;;
42132;SDS011;70517;48.192;16.278;2024-01-27T05:21:35;0.47;;;0.40;;
42132;SDS011;70517;48.192;16.278;2024-01-27T05:24:35;0.50;;;0.30;;
42132;SDS011;70517;48.192;16.278;2024-01-27T05:27:36;2.23;;;0.60;;
42132;SDS011;70517;48.192;16.278;2024-01-27T05:30:37;1.45;;;0.38;;
42132;SDS011;70517;48.192;16.278;2024-01-27T05:33:37;0.60;;;0.37;;
42132;SDS011;70517;48.192;16.278;2024-01-27T05:36:38;0.30;;;0.30;;
42132;SDS011;70517;48.192;16.278;2024-01-27T05:39:38;0.97;;;0.40;;
42132;SDS011;70517;48.192;16.278;2024-01-27T05:42:38;0.60;;;0.40;;
42132;SDS011;70517;48.192;16.278;2024-01-27T05:45:43;1.98;;;0.50;;
42132;SDS011;70517;48.192;16.278;2024-01-27T05:48:45;0.55;;;0.32;;
42132;SDS011;70517;48.192;16.278;2024-01-27T05:51:45;0.40;;;0.30;;
42132;SDS011;70517;48.192;16.278;2024-01-27T05:54:45;0.50;;;0.37;;
42132;SDS011;70517;48.192;16.278;2024-01-27T05:57:45;0.60;;;0.40;;
42132;SDS011;70517;48.192;16.278;2024-01-27T06:00:46;0.53;;;0.23;;
42132;SDS011;70517;48.192;16.278;2024-01-27T06:03:46;0.47;;;0.43;;
42132;SDS011;70517;48.192;16.278;2024-01-27T06:06:46;1.87;;;0.33;;
42132;SDS011;70517;48.192;16.278;2024-01-27T06:09:47;0.67;;;0.23;;
42132;SDS011;70517;48.192;16.278;2024-01-27T06:12:47;0.60;;;0.40;;
42132;SDS011;70517;48.192;16.278;2024-01-27T06:15:47;0.30;;;0.30;;
42132;SDS011;70517;48.192;16.278;2024-01-27T06:18:48;0.80;;;0.30;;
42132;SDS011;70517;48.192;16.278;2024-01-27T06:21:48;0.97;;;0.30;;
42132;SDS011;70517;48.192;16.278;2024-01-27T06:24:48;1.07;;;0.50;;
42132;SDS011;70517;48.192;16.278;2024-01-27T06:27:48;0.60;;;0.30;;
42132;SDS011;70517;48.192;16.278;2024-01-27T06:30:49;2.23;;;0.50;;
42132;SDS011;70517;48.192;16.278;2024-01-27T06:33:49;0.77;;;0.30;;
42132;SDS011;70517;48.192;16.278;2024-01-27T06:36:50;0.87;;;0.40;;
42132;SDS011;70517;48.192;16.278;2024-01-27T06:39:50;1.17;;;0.50;;
42132;SDS011;70517;48.192;16.278;2024-01-27T06:42:50;1.87;;;0.60;;
42132;SDS011;70517;48.192;16.278;2024-01-27T06:45:50;0.70;;;0.40;;
42132;SDS011;70517;48.192;16.278;2024-01-27T06:48:51;1.23;;;0.40;;
42132;SDS011;70517;48.192;16.278;2024-01-27T06:51:51;0.60;;;0.30;;
42132;SDS011;70517;48.192;16.278;2024-01-27T06:54:51;0.50;;;0.30;;
42132;SDS011;70517;48.192;16.278;2024-01-27T06:57:52;1.13;;;0.30;;
42132;SDS011;70517;48.192;16.278;2024-01-27T07:00:52;0.77;;;0.40;;
42132;SDS011;70517;48.192;16.278;2024-01-27T07:03:52;1.20;;;0.40;;
42132;SDS011;70517;48.192;16.278;2024-01-27T07:06:52;0.60;;;0.60;;
42132;SDS011;70517;48.192;16.278;2024-01-27T07:09:54;1.03;;;0.30;;
42132;SDS011;70517;48.192;16.278;2024-01-27T07:12:54;0.43;;;0.32;;
42132;SDS011;70517;48.192;16.278;2024-01-27T07:15:55;0.47;;;0.30;;
42132;SDS011;70517;48.192;16.278;2024-01-27T07:18:55;1.47;;;0.30;;
42132;SDS011;70517;48.192;16.278;2024-01-27T07:21:56;0.77;;;0.50;;
42132;SDS011;70517;48.192;16.278;2024-01-27T07:24:56;0.90;;;0.60;;
42132;SDS011;70517;48.192;16.278;2024-01-27T07:27:56;0.60;;;0.30;;
42132;SDS011;70517;48.192;16.278;2024-01-27T07:30:57;2.03;;;0.50;;
42132;SDS011;70517;48.192;16.278;2024-01-27T07:33:57;0.47;;;0.30;;
42132;SDS011;70517;48.192;16.278;2024-01-27T07:36:57;1.77;;;0.50;;
42132;SDS011;70517;48.192;16.278;2024-01-27T07:39:57;1.73;;;0.90;;
42132;SDS011;70517;48.192;16.278;2024-01-27T07:42:58;2.83;;;0.63;;
42132;SDS011;70517;48.192;16.278;2024-01-27T07:45:58;1.83;;;0.67;;
42132;SDS011;70517;48.192;16.278;2024-01-27T07:48:58;1.03;;;0.50;;
42132;SDS011;70517;48.192;16.278;2024-01-27T07:51:58;0.57;;;0.50;;
42132;SDS011;70517;48.192;16.278;2024-01-27T07:54:59;0.50;;;0.50;;
42132;SDS011;70517;48.192;16.278;2024-01-27T07:57:59;0.83;;;0.50;;
42132;SDS011;70517;48.192;16.278;2024-01-27T08:00:59;0.80;;;0.63;;
42132;SDS011;70517;48.192;16.278;2024-01-27T08:04:00;1.02;;;0.50;;
42132;SDS011;70517;48.192;16.278;2024-01-27T08:07:00;1.00;;;0.50;;
42132;SDS011;70517;48.192;16.278;2024-01-27T08:10:06;0.70;;;0.40;;
42132;SDS011;70517;48.192;16.278;2024-01-27T08:13:06;0.70;;;0.50;;
42132;SDS011;70517;48.192;16.278;2024-01-27T08:16:07;2.20;;;0.60;;
42132;SDS011;70517;48.192;16.278;2024-01-27T08:19:09;1.33;;;0.60;;
42132;SDS011;70517;48.192;16.278;2024-01-27T08:22:09;0.80;;;0.50;;
42132;SDS011;70517;48.192;16.278;2024-01-27T08:25:10;1.27;;;0.53;;
42132;SDS011;70517;48.192;16.278;2024-01-27T08:28:10;1.07;;;0.70;;
42132;SDS011;70517;48.192;16.278;2024-01-27T08:31:10;1.10;;;0.60;;
42132;SDS011;70517;48.192;16.278;2024-01-27T08:34:10;1.23;;;0.60;;
42132;SDS011;70517;48.192;16.278;2024-01-27T08:37:17;1.05;;;0.50;;
42132;SDS011;70517;48.192;16.278;2024-01-27T08:40:18;1.55;;;0.63;;
42132;SDS011;70517;48.192;16.278;2024-01-27T08:43:18;0.77;;;0.63;;
42132;SDS011;70517;48.192;16.278;2024-01-27T08:46:18;0.97;;;0.50;;
42132;SDS011;70517;48.192;16.278;2024-01-27T08:49:21;1.00;;;0.60;;
42132;SDS011;70517;48.192;16.278;2024-01-27T08:52:21;1.50;;;0.50;;
42132;SDS011;70517;48.192;16.278;2024-01-27T08:55:21;0.63;;;0.50;;
42132;SDS011;70517;48.192;16.278;2024-01-27T08:58:24;1.23;;;0.55;;
42132;SDS011;70517;48.192;16.278;2024-01-27T09:01:24;1.33;;;0.53;;
42132;SDS011;70517;48.192;16.278;2024-01-27T09:04:24;1.23;;;0.47;;
42132;SDS011;70517;48.192;16.278;2024-01-27T09:07:24;0.63;;;0.53;;
42132;SDS011;70517;48.192;16.278;2024-01-27T09:10:25;1.30;;;0.60;;
42132;SDS011;70517;48.192;16.278;2024-01-27T09:13:25;0.90;;;0.47;;
42132;SDS011;70517;48.192;16.278;2024-01-27T09:16:25;1.50;;;0.60;;
42132;SDS011;70517;48.192;16.278;2024-01-27T09:19:26;0.57;;;0.50;;
42132;SDS011;70517;48.192;16.278;2024-01-27T09:22:26;0.80;;;0.70;;
42132;SDS011;70517;48.192;16.278;2024-01-27T09:25:26;1.77;;;0.90;;
42132;SDS011;70517;48.192;16.278;2024-01-27T09:28:28;1.35;;;0.60;;
42132;SDS011;70517;48.192;16.278;2024-01-27T09:31:28;0.90;;;0.70;;
42132;SDS011;70517;48.192;16.278;2024-01-27T09:34:28;1.00;;;0.70;;
42132;SDS011;70517;48.192;16.278;2024-01-27T09:37:28;1.73;;;0.73;;
42132;SDS011;70517;48.192;16.278;2024-01-27T09:40:29;1.23;;;0.70;;
42132;SDS011;70517;48.192;16.278;2024-01-27T09:43:29;1.17;;;0.70;;
42132;SDS011;70517;48.192;16.278;2024-01-27T09:46:31;0.77;;;0.50;;
42132;SDS011;70517;48.192;16.278;2024-01-27T09:49:31;1.08;;;0.68;;
42132;SDS011;70517;48.192;16.278;2024-01-27T09:52:32;1.17;;;0.70;;
42132;SDS011;70517;48.192;16.278;2024-01-27T09:55:32;1.00;;;0.60;;
42132;SDS011;70517;48.192;16.278;2024-01-27T09:58:32;0.77;;;0.67;;
42132;SDS011;70517;48.192;16.278;2024-01-27T10:01:33;0.80;;;0.57;;
42132;SDS011;70517;48.192;16.278;2024-01-27T10:07:35;0.80;;;0.65;;
42132;SDS011;70517;48.192;16.278;2024-01-27T10:10:35;0.73;;;0.73;;
42132;SDS011;70517;48.192;16.278;2024-01-27T10:13:36;1.90;;;0.60;;
42132;SDS011;70517;48.192;16.278;2024-01-27T10:16:45;1.37;;;0.80;;
42132;SDS011;70517;48.192;16.278;2024-01-27T10:19:46;0.80;;;0.60;;
42132;SDS011;70517;48.192;16.278;2024-01-27T10:22:46;0.97;;;0.70;;
42132;SDS011;70517;48.192;16.278;2024-01-27T10:25:47;1.57;;;0.73;;
42132;SDS011;70517;48.192;16.278;2024-01-27T10:28:56;1.77;;;0.60;;
42132;SDS011;70517;48.192;16.278;2024-01-27T10:32:06;1.50;;;0.50;;
42132;SDS011;70517;48.192;16.278;2024-01-27T10:35:07;0.95;;;0.50;;
42132;SDS011;70517;48.192;16.278;2024-01-27T10:38:10;1.15;;;0.68;;
42132;SDS011;70517;48.192;16.278;2024-01-27T10:41:11;2.07;;;0.60;;
42132;SDS011;70517;48.192;16.278;2024-01-27T10:44:13;1.33;;;0.60;;
42132;SDS011;70517;48.192;16.278;2024-01-27T10:47:14;1.20;;;0.60;;
42132;SDS011;70517;48.192;16.278;2024-01-27T10:50:18;1.10;;;0.70;;
42132;SDS011;70517;48.192;16.278;2024-01-27T10:53:22;1.07;;;0.67;;
42132;SDS011;70517;48.192;16.278;2024-01-27T10:56:27;0.88;;;0.60;;
42132;SDS011;70517;48.192;16.278;2024-01-27T10:59:29;0.77;;;0.60;;
42132;SDS011;70517;48.192;16.278;2024-01-27T11:02:31;1.00;;;0.67;;
42132;SDS011;70517;48.192;16.278;2024-01-27T11:05:32;1.15;;;0.70;;
42132;SDS011;70517;48.192;16.278;2024-01-27T11:08:35;0.50;;;0.50;;
42132;SDS011;70517;48.192;16.278;2024-01-27T11:11:37;0.75;;;0.60;;
42132;SDS011;70517;48.192;16.278;2024-01-27T11:14:38;2.28;;;0.85;;
42132;SDS011;70517;48.192;16.278;2024-01-27T11:17:39;0.80;;;0.50;;
42132;SDS011;70517;48.192;16.278;2024-01-27T11:20:44;1.13;;;0.50;;
42132;SDS011;70517;48.192;16.278;2024-01-27T11:23:44;0.60;;;0.45;;
42132;SDS011;70517;48.192;16.278;2024-01-27T11:26:47;1.10;;;0.50;;
42132;SDS011;70517;48.192;16.278;2024-01-27T11:29:47;1.40;;;0.57;;
42132;SDS011;70517;48.192;16.278;2024-01-27T11:32:48;1.13;;;0.63;;
42132;SDS011;70517;48.192;16.278;2024-01-27T11:35:59;2.37;;;0.60;;
42132;SDS011;70517;48.192;16.278;2024-01-27T11:38:59;1.98;;;0.70;;
42132;SDS011;70517;48.192;16.278;2024-01-27T11:42:06;2.08;;;0.68;;
42132;SDS011;70517;48.192;16.278;2024-01-27T11:45:10;1.13;;;0.60;;
42132;SDS011;70517;48.192;16.278;2024-01-27T11:48:10;1.10;;;0.55;;
42132;SDS011;70517;48.192;16.278;2024-01-27T11:51:11;1.20;;;0.63;;
42132;SDS011;70517;48.192;16.278;2024-01-27T11:54:11;2.22;;;0.50;;
42132;SDS011;70517;48.192;16.278;2024-01-27T12:00:13;0.50;;;0.30;;
42132;SDS011;70517;48.192;16.278;2024-01-27T12:03:13;0.53;;;0.50;;
42132;SDS011;70517;48.192;16.278;2024-01-27T12:06:14;1.30;;;0.50;;
42132;SDS011;70517;48.192;16.278;2024-01-27T12:09:14;1.00;;;0.60;;
42132;SDS011;70517;48.192;16.278;2024-01-27T12:12:16;1.10;;;0.60;;
42132;SDS011;70517;48.192;16.278;2024-01-27T12:15:17;1.37;;;0.80;;
42132;SDS011;70517;48.192;16.278;2024-01-27T12:18:20;3.08;;;0.77;;
42132;SDS011;70517;48.192;16.278;2024-01-27T12:21:20;1.67;;;0.60;;
42132;SDS011;70517;48.192;16.278;2024-01-27T12:24:20;0.77;;;0.70;;
42132;SDS011;70517;48.192;16.278;2024-01-27T12:27:23;0.67;;;0.47;;
42132;SDS011;70517;48.192;16.278;2024-01-27T12:30:24;1.27;;;0.50;;
42132;SDS011;70517;48.192;16.278;2024-01-27T12:33:25;1.60;;;0.70;;
42132;SDS011;70517;48.192;16.278;2024-01-27T12:36:26;0.93;;;0.60;;
42132;SDS011;70517;48.192;16.278;2024-01-27T12:39:26;1.40;;;0.70;;
42132;SDS011;70517;48.192;16.278;2024-01-27T12:42:26;1.27;;;0.50;;
42132;SDS011;70517;48.192;16.278;2024-01-27T12:45:27;1.33;;;0.60;;
42132;SDS011;70517;48.192;16.278;2024-01-27T12:48:28;1.67;;;0.50;;
42132;SDS011;70517;48.192;16.278;2024-01-27T12:51:29;2.03;;;0.77;;
42132;SDS011;70517;48.192;16.278;2024-01-27T12:54:29;2.00;;;0.67;;
42132;SDS011;70517;48.192;16.278;2024-01-27T12:57:29;1.13;;;0.70;;
42132;SDS011;70517;48.192;16.278;2024-01-27T13:00:30;1.37;;;0.50;;
42132;SDS011;70517;48.192;16.278;2024-01-27T13:03:30;1.73;;;0.70;;
42132;SDS011;70517;48.192;16.278;2024-01-27T13:06:30;0.83;;;0.50;;
42132;SDS011;70517;48.192;16.278;2024-01-27T13:09:30;0.80;;;0.63;;
42132;SDS011;70517;48.192;16.278;2024-01-27T13:12:31;1.00;;;0.60;;
42132;SDS011;70517;48.192;16.278;2024-01-27T13:15:31;1.00;;;0.63;;
42132;SDS011;70517;48.192;16.278;2024-01-27T13:18:31;3.47;;;0.70;;
42132;SDS011;70517;48.192;16.278;2024-01-27T13:21:32;2.23;;;0.70;;
42132;SDS011;70517;48.192;16.278;2024-01-27T13:24:32;1.27;;;0.70;;
42132;SDS011;70517;48.192;16.278;2024-01-27T13:27:33;1.40;;;0.53;;
42132;SDS011;70517;48.192;16.278;2024-01-27T13:30:34;1.60;;;0.60;;
42132;SDS011;70517;48.192;16.278;2024-01-27T13:33:34;1.10;;;0.43;;
42132;SDS011;70517;48.192;16.278;2024-01-27T13:36:35;2.08;;;0.43;;
42132;SDS011;70517;48.192;16.278;2024-01-27T13:39:36;1.00;;;0.50;;
42132;SDS011;70517;48.192;16.278;2024-01-27T13:42:36;1.20;;;0.60;;
42132;SDS011;70517;48.192;16.278;2024-01-27T13:45:36;1.93;;;1.00;;
42132;SDS011;70517;48.192;16.278;2024-01-27T13:48:37;1.80;;;0.70;;
42132;SDS011;70517;48.192;16.278;2024-01-27T13:51:37;0.90;;;0.60;;
42132;SDS011;70517;48.192;16.278;2024-01-27T13:54:38;0.65;;;0.40;;
42132;SDS011;70517;48.192;16.278;2024-01-27T13:57:39;1.40;;;0.43;;
42132;SDS011;70517;48.192;16.278;2024-01-27T14:00:40;1.20;;;0.50;;
42132;SDS011;70517;48.192;16.278;2024-01-27T14:03:41;1.10;;;0.50;;
42132;SDS011;70517;48.192;16.278;2024-01-27T14:06:41;2.67;;;0.50;;
42132;SDS011;70517;48.192;16.278;2024-01-27T14:09:42;1.10;;;0.50;;
42132;SDS011;70517;48.192;16.278;2024-01-27T14:12:44;0.68;;;0.40;;
42132;SDS011;70517;48.192;16.278;2024-01-27T14:15:44;0.83;;;0.47;;
42132;SDS011;70517;48.192;16.278;2024-01-27T14:18:44;1.97;;;0.50;;
42132;SDS011;70517;48.192;16.278;2024-01-27T14:21:45;0.70;;;0.40;;
42132;SDS011;70517;48.192;16.278;2024-01-27T14:24:45;0.93;;;0.43;;
42132;SDS011;70517;48.192;16.278;2024-01-27T14:27:46;0.80;;;0.40;;
42132;SDS011;70517;48.192;16.278;2024-01-27T14:30:46;0.40;;;0.40;;
42132;SDS011;70517;48.192;16.278;2024-01-27T14:33:46;1.20;;;0.60;;
42132;SDS011;70517;48.192;16.278;2024-01-27T14:36:46;1.70;;;0.60;;
42132;SDS011;70517;48.192;16.278;2024-01-27T14:39:47;1.00;;;0.53;;
42132;SDS011;70517;48.192;16.278;2024-01-27T14:42:48;2.00;;;0.57;;
42132;SDS011;70517;48.192;16.278;2024-01-27T14:45:50;0.73;;;0.40;;
42132;SDS011;70517;48.192;16.278;2024-01-27T14:48:50;0.50;;;0.50;;
42132;SDS011;70517;48.192;16.278;2024-01-27T14:51:50;0.70;;;0.67;;
42132;SDS011;70517;48.192;16.278;2024-01-27T14:54:51;1.63;;;0.50;;
42132;SDS011;70517;48.192;16.278;2024-01-27T14:57:51;1.03;;;0.83;;
42132;SDS011;70517;48.192;16.278;2024-01-27T15:00:51;0.80;;;0.60;;
42132;SDS011;70517;48.192;16.278;2024-01-27T15:03:52;0.73;;;0.60;;
42132;SDS011;70517;48.192;16.278;2024-01-27T15:06:56;0.57;;;0.50;;
42132;SDS011;70517;48.192;16.278;2024-01-27T15:09:56;0.90;;;0.47;;
42132;SDS011;70517;48.192;16.278;2024-01-27T15:12:57;1.40;;;0.53;;
42132;SDS011;70517;48.192;16.278;2024-01-27T15:15:58;1.40;;;0.55;;
42132;SDS011;70517;48.192;16.278;2024-01-27T15:18:59;0.80;;;0.50;;
42132;SDS011;70517;48.192;16.278;2024-01-27T15:21:59;1.20;;;0.50;;
42132;SDS011;70517;48.192;16.278;2024-01-27T15:25:00;0.90;;;0.50;;
42132;SDS011;70517;48.192;16.278;2024-01-27T15:28:00;0.93;;;0.53;;
42132;SDS011;70517;48.192;16.278;2024-01-27T15:31:01;2.60;;;0.70;;
42132;SDS011;70517;48.192;16.278;2024-01-27T15:34:01;0.50;;;0.50;;
42132;SDS011;70517;48.192;16.278;2024-01-27T15:40:03;1.80;;;0.30;;
42132;SDS011;70517;48.192;16.278;2024-01-27T15:43:04;0.83;;;0.57;;
42132;SDS011;70517;48.192;16.278;2024-01-27T15:46:04;1.10;;;0.63;;
42132;SDS011;70517;48.192;16.278;2024-01-27T15:49:06;1.20;;;0.60;;
42132;SDS011;70517;48.192;16.278;2024-01-27T15:52:07;0.70;;;0.50;;
42132;SDS011;70517;48.192;16.278;2024-01-27T15:55:07;0.50;;;0.40;;
42132;SDS011;70517;48.192;16.278;2024-01-27T15:58:08;3.00;;;0.60;;
42132;SDS011;70517;48.192;16.278;2024-01-27T16:01:09;1.00;;;0.55;;
42132;SDS011;70517;48.192;16.278;2024-01-27T16:04:09;1.43;;;0.50;;
42132;SDS011;70517;48.192;16.278;2024-01-27T16:07:10;1.03;;;0.60;;
42132;SDS011;70517;48.192;16.278;2024-01-27T16:10:10;0.53;;;0.40;;
42132;SDS011;70517;48.192;16.278;2024-01-27T16:13:10;1.83;;;0.50;;
42132;SDS011;70517;48.192;16.278;2024-01-27T16:16:11;1.93;;;0.50;;
42132;SDS011;70517;48.192;16.278;2024-01-27T16:19:11;0.87;;;0.57;;
42132;SDS011;70517;48.192;16.278;2024-01-27T16:22:11;1.83;;;0.60;;
42132;SDS011;70517;48.192;16.278;2024-01-27T16:25:12;0.70;;;0.47;;
42132;SDS011;70517;48.192;16.278;2024-01-27T16:28:12;1.83;;;0.50;;
42132;SDS011;70517;48.192;16.278;2024-01-27T16:31:12;1.87;;;0.60;;
42132;SDS011;70517;48.192;16.278;2024-01-27T16:34:12;2.37;;;0.67;;
42132;SDS011;70517;48.192;16.278;2024-01-27T16:37:13;2.43;;;0.70;;
42132;SDS011;70517;48.192;16.278;2024-01-27T16:40:14;1.33;;;0.57;;
42132;SDS011;70517;48.192;16.278;2024-01-27T16:43:14;2.03;;;0.63;;
42132;SDS011;70517;48.192;16.278;2024-01-27T16:46:14;1.07;;;0.63;;
42132;SDS011;70517;48.192;16.278;2024-01-27T16:49:14;0.90;;;0.60;;
42132;SDS011;70517;48.192;16.278;2024-01-27T16:52:15;1.80;;;0.60;;
42132;SDS011;70517;48.192;16.278;2024-01-27T16:55:15;1.07;;;0.60;;
42132;SDS011;70517;48.192;16.278;2024-01-27T16:58:15;0.73;;;0.50;;
42132;SDS011;70517;48.192;16.278;2024-01-27T17:01:16;1.00;;;0.40;;
42132;SDS011;70517;48.192;16.278;2024-01-27T17:04:16;1.47;;;0.70;;
42132;SDS011;70517;48.192;16.278;2024-01-27T17:07:16;1.23;;;0.60;;
42132;SDS011;70517;48.192;16.278;2024-01-27T17:10:17;1.43;;;0.63;;
42132;SDS011;70517;48.192;16.278;2024-01-27T17:13:17;2.13;;;0.63;;
42132;SDS011;70517;48.192;16.278;2024-01-27T17:16:17;2.10;;;0.70;;
42132;SDS011;70517;48.192;16.278;2024-01-27T17:19:17;1.10;;;0.50;;
42132;SDS011;70517;48.192;16.278;2024-01-27T17:22:18;1.27;;;0.70;;
42132;SDS011;70517;48.192;16.278;2024-01-27T17:25:18;1.87;;;0.70;;
42132;SDS011;70517;48.192;16.278;2024-01-27T17:28:18;1.77;;;0.57;;
42132;SDS011;70517;48.192;16.278;2024-01-27T17:31:18;1.07;;;0.67;;
42132;SDS011;70517;48.192;16.278;2024-01-27T17:34:19;1.63;;;0.57;;
42132;SDS011;70517;48.192;16.278;2024-01-27T17:37:20;1.92;;;0.60;;
42132;SDS011;70517;48.192;16.278;2024-01-27T17:40:21;6.83;;;1.10;;
42132;SDS011;70517;48.192;16.278;2024-01-27T17:43:24;2.28;;;1.33;;
42132;SDS011;70517;48.192;16.278;2024-01-27T17:46:26;1.60;;;1.07;;
42132;SDS011;70517;48.192;16.278;2024-01-27T17:49:27;1.38;;;0.60;;
42132;SDS011;70517;48.192;16.278;2024-01-27T17:52:27;3.07;;;0.70;;
42132;SDS011;70517;48.192;16.278;2024-01-27T17:55:27;1.03;;;0.63;;
42132;SDS011;70517;48.192;16.278;2024-01-27T17:58:27;1.27;;;0.70;;
42132;SDS011;70517;48.192;16.278;2024-01-27T18:01:28;2.07;;;0.50;;